Terminal Aerodrome Forecast
Issued by NWS

Home | Current Version | Previous Version | Text Only | Print | Product List | Glossary On
Versions: 1 2 3 4 5 6 7 8 9 10 11 12 13 14 15 16 17 18 19 20
173
FTUS46 KMTR 061128
TAFMRY
TAF
KMRY 061128Z 0612/0712 18008KT P6SM SCT016
      TEMPO 0612/0616 BKN016
     FM061600 29008KT P6SM FEW020 FEW200
     FM061800 30008KT P6SM FEW180
     FM070200 24004KT P6SM SCT180
     FM070500 11005KT P6SM SCT150=

USA.gov is the U.S. government's official web portal to all federal, state and local government web resources and services.